createdAt,value
2018-11-14T00:00:03.023Z,8.23
2018-11-14T00:02:31.233Z,9.23
2018-11-14T00:04:59.410Z,8.65
2018-11-14T00:07:27.540Z,7.22
2018-11-14T00:09:55.651Z,9.70
2018-11-14T00:12:23.805Z,8.18
2018-11-14T00:14:51.931Z,8.38
2018-11-14T00:17:20.353Z,7.70
2018-11-14T00:19:48.421Z,9.13
2018-11-14T00:22:16.514Z,9.40
2018-11-14T00:24:44.669Z,8.35
2018-11-14T00:27:12.744Z,8.15
2018-11-14T00:29:41.269Z,8.95
2018-11-14T00:32:08.950Z,8.28
2018-11-14T00:34:37.118Z,10.55
2018-11-14T00:37:05.646Z,8.23
2018-11-14T00:39:33.823Z,12.85
2018-11-14T00:42:01.929Z,9.38
2018-11-14T00:44:30.168Z,9.70
2018-11-14T00:46:58.271Z,8.28
2018-11-14T00:49:26.801Z,8.08
2018-11-14T00:51:55.065Z,8.83
2018-11-14T00:54:23.131Z,8.85
2018-11-14T00:56:51.309Z,11.83
2018-11-14T00:59:19.399Z,9.68
2018-11-14T01:01:47.604Z,6.08
2018-11-14T01:04:15.550Z,7.50
2018-11-14T01:06:43.567Z,8.93
2018-11-14T01:09:12.339Z,10.27
2018-11-14T01:11:40.451Z,11.75
2018-11-14T01:14:09.368Z,9.15
2018-11-14T01:16:37.681Z,8.63
2018-11-14T01:19:07.120Z,9.53
2018-11-14T01:21:35.282Z,9.28
2018-11-14T01:24:03.474Z,10.20
2018-11-14T01:26:31.696Z,9.35
2018-11-14T01:28:59.917Z,8.28
2018-11-14T01:31:27.950Z,6.50
2018-11-14T01:33:56.072Z,10.60
2018-11-14T01:36:24.103Z,7.50
2018-11-14T01:38:52.225Z,11.35
2018-11-14T01:41:20.522Z,9.93
2018-11-14T01:43:48.621Z,7.70
2018-11-14T01:46:16.750Z,7.97
2018-11-14T01:48:44.814Z,7.20
2018-11-14T01:51:12.884Z,10.15
2018-11-14T01:53:40.976Z,10.40
2018-11-14T01:56:09.043Z,7.62
2018-11-14T01:58:37.184Z,8.60
2018-11-14T02:01:05.587Z,7.78
2018-11-14T02:03:33.745Z,7.62
2018-11-14T02:06:01.873Z,7.47
2018-11-14T02:08:29.934Z,7.35
2018-11-14T02:10:57.973Z,9.68
2018-11-14T02:13:26.056Z,10.98
2018-11-14T02:15:54.200Z,10.68
2018-11-14T02:18:22.292Z,7.25
2018-11-14T02:20:50.431Z,11.12
2018-11-14T02:23:18.575Z,7.87
2018-11-14T02:25:46.822Z,8.73
2018-11-14T02:28:14.872Z,8.10
2018-11-14T02:30:42.986Z,7.37
2018-11-14T02:33:11.072Z,8.05
2018-11-14T02:35:39.161Z,7.40
2018-11-14T02:38:07.241Z,16.37
2018-11-14T02:40:35.362Z,8.00
2018-11-14T02:43:03.510Z,11.93
2018-11-14T02:45:31.817Z,8.20
2018-11-14T02:47:59.972Z,13.65
2018-11-14T02:50:28.090Z,10.75
2018-11-14T02:52:57.105Z,9.18
2018-11-14T02:55:25.169Z,9.50
2018-11-14T02:57:53.224Z,11.22
2018-11-14T03:00:22.449Z,8.85
2018-11-14T03:02:50.588Z,12.30
2018-11-14T03:05:18.716Z,13.98
2018-11-14T03:07:46.845Z,8.23
2018-11-14T03:10:18.670Z,9.48
2018-11-14T03:12:46.847Z,8.03
2018-11-14T03:15:18.688Z,10.13
2018-11-14T03:17:46.791Z,8.85
2018-11-14T03:20:19.957Z,7.83
2018-11-14T03:22:48.121Z,11.35
2018-11-14T03:25:16.363Z,9.60
2018-11-14T03:27:44.486Z,10.65
2018-11-14T03:30:15.138Z,9.30
2018-11-14T03:32:43.775Z,14.85
2018-11-14T03:35:12.657Z,11.00
2018-11-14T03:37:40.841Z,10.18
2018-11-14T03:40:11.651Z,9.50
2018-11-14T03:42:39.797Z,8.83
2018-11-14T03:45:09.636Z,10.43
2018-11-14T03:47:37.963Z,9.23
2018-11-14T03:50:07.119Z,9.68
2018-11-14T03:52:35.314Z,10.58
2018-11-14T03:55:03.531Z,12.13
2018-11-14T03:57:31.723Z,12.07
2018-11-14T03:59:59.999Z,8.55
2018-11-14T04:02:28.114Z,14.75
2018-11-14T04:04:56.357Z,10.68
2018-11-14T04:07:25.092Z,11.65
2018-11-14T04:09:53.178Z,9.65
2018-11-14T04:12:21.263Z,9.60
2018-11-14T04:14:49.559Z,10.10
2018-11-14T04:17:17.679Z,12.05
2018-11-14T04:19:45.863Z,12.43
2018-11-14T04:22:17.239Z,12.30
2018-11-14T04:24:45.493Z,17.65
2018-11-14T04:27:13.610Z,11.48
2018-11-14T04:29:41.745Z,16.93
2018-11-14T04:32:09.795Z,14.07
2018-11-14T04:34:37.865Z,8.90
2018-11-14T04:37:06.048Z,11.83
2018-11-14T04:39:34.216Z,11.78
2018-11-14T04:42:02.302Z,8.65
2018-11-14T04:44:30.376Z,11.38
2018-11-14T04:46:58.541Z,12.70
2018-11-14T04:49:26.893Z,14.53
2018-11-14T04:51:54.947Z,11.57
2018-11-14T04:54:22.975Z,13.48
2018-11-14T04:56:51.842Z,10.95
2018-11-14T04:59:19.957Z,9.05
2018-11-14T05:01:48.093Z,9.50
2018-11-14T05:04:16.155Z,11.50
2018-11-14T05:06:44.268Z,14.33
2018-11-14T05:09:12.811Z,12.37
2018-11-14T05:11:41.388Z,13.85
2018-11-14T05:14:09.849Z,8.70
2018-11-14T05:16:38.037Z,12.23
2018-11-14T05:19:06.132Z,8.85
2018-11-14T05:21:34.722Z,9.50
2018-11-14T05:24:02.964Z,8.20
2018-11-14T05:26:31.124Z,8.23
2018-11-14T05:28:59.540Z,10.03
2018-11-14T05:31:27.737Z,12.55
2018-11-14T05:33:55.811Z,14.53
2018-11-14T05:36:23.906Z,13.25
2018-11-14T05:38:52.143Z,19.98
2018-11-14T05:41:20.204Z,16.73
2018-11-14T05:43:48.489Z,20.50
2018-11-14T05:46:16.645Z,27.90
2018-11-14T05:48:44.787Z,22.87
2018-11-14T05:51:12.955Z,18.05
2018-11-14T05:53:41.099Z,20.60
2018-11-14T05:56:09.453Z,34.43
2018-11-14T05:58:37.621Z,31.75
2018-11-14T06:01:06.000Z,29.32
2018-11-14T06:03:34.216Z,25.10
2018-11-14T06:06:02.442Z,25.85
2018-11-14T06:08:30.494Z,21.68
2018-11-14T06:10:58.657Z,30.95
2018-11-14T06:13:26.790Z,42.45
2018-11-14T06:15:55.158Z,50.28
2018-11-14T06:18:23.418Z,51.33
2018-11-14T06:20:51.569Z,47.78
2018-11-14T06:23:20.394Z,39.18
2018-11-14T06:25:48.616Z,38.92
2018-11-14T06:28:16.855Z,26.57
2018-11-14T06:30:44.978Z,36.50
2018-11-14T06:33:13.169Z,39.40
2018-11-14T06:35:41.306Z,43.87
2018-11-14T06:38:09.510Z,41.23
2018-11-14T06:40:37.699Z,41.73
2018-11-14T06:43:05.944Z,44.90
2018-11-14T06:45:34.566Z,50.08
2018-11-14T06:48:03.349Z,54.88
2018-11-14T06:50:31.430Z,58.85
2018-11-14T06:53:01.171Z,72.05
2018-11-14T06:55:29.363Z,62.45
2018-11-14T06:57:57.667Z,61.98
2018-11-14T07:00:34.517Z,64.77
2018-11-14T07:03:04.008Z,98.12
2018-11-14T07:05:32.184Z,101.35
2018-11-14T07:08:00.315Z,85.60
2018-11-14T07:10:30.032Z,88.62
2018-11-14T07:13:03.996Z,76.33
2018-11-14T07:15:33.120Z,67.90
2018-11-14T07:18:01.452Z,77.67
2018-11-14T07:20:31.640Z,65.97
2018-11-14T07:22:59.760Z,65.60
2018-11-14T07:25:28.047Z,72.92
2018-11-14T07:27:56.616Z,71.97
2018-11-14T07:30:25.964Z,54.48
2018-11-14T07:32:55.562Z,59.98
2018-11-14T07:35:23.793Z,59.85
2018-11-14T07:38:32.475Z,48.65
2018-11-14T07:41:01.992Z,52.40
2018-11-14T07:43:30.446Z,55.20
2018-11-14T07:45:58.639Z,42.58
2018-11-14T07:48:26.699Z,41.68
2018-11-14T07:50:54.824Z,55.95
2018-11-14T07:53:23.192Z,44.30
2018-11-14T07:55:51.282Z,47.50
2018-11-14T07:58:19.438Z,48.60
2018-11-14T08:00:47.764Z,49.63
2018-11-14T08:03:15.911Z,51.58
2018-11-14T08:05:44.028Z,42.48
2018-11-14T08:08:12.271Z,54.58
2018-11-14T08:10:40.561Z,49.55
2018-11-14T08:13:08.727Z,49.48
2018-11-14T08:15:38.138Z,46.42
2018-11-14T08:18:06.614Z,49.85
2018-11-14T08:20:34.778Z,55.63
2018-11-14T08:23:03.027Z,51.37
2018-11-14T08:25:31.200Z,68.28
2018-11-14T08:27:59.445Z,58.45
2018-11-14T08:30:27.724Z,59.30
2018-11-14T08:32:55.928Z,53.95
2018-11-14T08:35:24.135Z,62.40
2018-11-14T08:37:52.269Z,55.50
2018-11-14T08:40:20.484Z,65.37
2018-11-14T08:42:48.611Z,69.75
2018-11-14T08:45:17.039Z,70.05
2018-11-14T08:47:45.234Z,82.50
2018-11-14T08:50:15.129Z,53.70
2018-11-14T08:52:43.818Z,59.40
2018-11-14T08:55:12.809Z,73.25
2018-11-14T08:57:41.988Z,69.10
2018-11-14T09:00:14.589Z,81.78
2018-11-14T09:02:43.621Z,65.40
2018-11-14T09:05:11.851Z,50.15
2018-11-14T09:07:39.924Z,65.75
2018-11-14T09:10:12.294Z,62.05
2018-11-14T09:12:40.997Z,53.38
2018-11-14T09:15:11.530Z,70.80
2018-11-14T09:17:39.960Z,73.62
2018-11-14T09:20:13.201Z,67.82
2018-11-14T09:22:43.786Z,66.25
2018-11-14T09:25:20.185Z,58.85
2018-11-14T09:27:48.836Z,52.83
2018-11-14T09:30:19.106Z,65.37
2018-11-14T09:32:47.664Z,72.20
2018-11-14T09:35:17.149Z,68.57
2018-11-14T09:37:45.390Z,60.95
2018-11-14T09:40:15.987Z,62.58
2018-11-14T09:42:44.160Z,58.75
2018-11-14T09:45:13.867Z,51.98
2018-11-14T09:47:42.045Z,55.58
2018-11-14T09:50:14.225Z,48.13
2018-11-14T09:52:43.539Z,51.92
2018-11-14T09:55:12.208Z,48.20
2018-11-14T09:57:40.977Z,57.40
2018-11-14T10:00:23.398Z,57.48
2018-11-14T10:02:54.459Z,57.38
2018-11-14T10:05:23.563Z,58.83
2018-11-14T10:07:58.530Z,43.38
2018-11-14T10:10:26.671Z,47.88
2018-11-14T10:12:54.803Z,52.80
2018-11-14T10:15:23.817Z,48.17
2018-11-14T10:17:51.943Z,38.90
2018-11-14T10:20:21.544Z,48.52
2018-11-14T10:22:49.961Z,42.48
2018-11-14T10:25:18.499Z,50.25
2018-11-14T10:27:47.307Z,54.40
2018-11-14T10:30:22.785Z,67.00
2018-11-14T10:32:51.383Z,57.35
2018-11-14T10:35:19.760Z,61.80
2018-11-14T10:37:47.855Z,55.95
2018-11-14T10:40:19.046Z,52.27
2018-11-14T10:42:47.205Z,52.03
2018-11-14T10:45:18.554Z,46.53
2018-11-14T10:47:46.680Z,41.93
2018-11-14T10:50:18.085Z,39.80
2018-11-14T10:52:46.329Z,41.20
2018-11-14T10:55:15.319Z,39.45
2018-11-14T10:57:43.500Z,44.15
2018-11-14T11:00:25.658Z,41.68
2018-11-14T11:02:59.760Z,38.53
2018-11-14T11:07:34.516Z,37.78
2018-11-14T11:12:11.358Z,39.60
2018-11-14T11:14:44.984Z,36.65
2018-11-14T11:17:18.740Z,33.63
2018-11-14T11:19:46.872Z,29.70
2018-11-14T11:22:14.955Z,29.55
2018-11-14T11:24:43.141Z,27.73
2018-11-14T11:27:11.200Z,23.42
2018-11-14T11:29:39.281Z,33.92
2018-11-14T11:32:07.483Z,29.60
2018-11-14T11:34:35.810Z,26.07
2018-11-14T11:37:03.991Z,27.30
2018-11-14T11:39:32.113Z,30.25
2018-11-14T11:42:00.163Z,29.98
2018-11-14T11:44:28.444Z,29.18
2018-11-14T11:46:56.578Z,27.30
2018-11-14T11:49:24.655Z,23.15
2018-11-14T11:51:52.768Z,28.75
2018-11-14T11:54:20.903Z,31.17
2018-11-14T11:56:49.028Z,29.15
2018-11-14T11:59:23.907Z,29.15
2018-11-14T12:01:51.995Z,25.73
2018-11-14T12:04:20.078Z,28.12
2018-11-14T12:06:48.247Z,37.13
2018-11-14T12:09:16.562Z,34.18
2018-11-14T12:11:44.725Z,41.37
2018-11-14T12:14:12.906Z,29.35
2018-11-14T12:16:41.081Z,31.75
2018-11-14T12:19:09.465Z,35.50
2018-11-14T12:21:37.572Z,32.80
2018-11-14T12:24:05.856Z,29.70
2018-11-14T12:26:34.008Z,25.37
2018-11-14T12:29:02.235Z,22.50
2018-11-14T12:31:30.580Z,24.07
2018-11-14T12:33:58.692Z,20.90
2018-11-14T12:36:26.962Z,25.33
2018-11-14T12:38:55.373Z,22.22
2018-11-14T12:41:23.392Z,23.73
2018-11-14T12:43:51.572Z,26.67
2018-11-14T12:46:20.054Z,32.20
2018-11-14T12:48:48.231Z,27.40
2018-11-14T12:51:16.365Z,24.18
2018-11-14T12:53:44.451Z,30.97
2018-11-14T12:56:12.708Z,22.77
2018-11-14T12:58:40.863Z,25.00
2018-11-14T13:01:09.013Z,25.63
2018-11-14T13:03:37.232Z,24.50
2018-11-14T13:06:05.563Z,23.10
2018-11-14T13:08:33.819Z,24.92
2018-11-14T13:11:02.120Z,23.57
2018-11-14T13:13:36.001Z,27.97
2018-11-14T13:16:04.558Z,32.03
2018-11-14T13:18:32.840Z,29.17
2018-11-14T13:21:00.999Z,28.98
2018-11-14T13:23:29.140Z,24.73
2018-11-14T13:25:57.457Z,24.20
2018-11-14T13:28:25.619Z,25.27
2018-11-14T13:30:53.889Z,26.93
2018-11-14T13:33:22.446Z,20.97
2018-11-14T13:35:50.712Z,27.57
2018-11-14T13:38:19.000Z,22.90
2018-11-14T13:40:47.387Z,23.33
2018-11-14T13:43:15.680Z,22.50
2018-11-14T13:45:44.051Z,24.50
2018-11-14T13:48:12.293Z,20.33
2018-11-14T13:50:40.757Z,20.90
2018-11-14T13:53:09.081Z,20.90
2018-11-14T13:55:37.278Z,27.07
2018-11-14T13:58:05.810Z,21.87
2018-11-14T14:00:34.140Z,20.20
2018-11-14T14:03:02.322Z,19.70
2018-11-14T14:05:30.524Z,21.53
2018-11-14T14:07:58.792Z,18.13
2018-11-14T14:10:26.928Z,20.63
2018-11-14T14:12:55.168Z,21.20
2018-11-14T14:15:24.922Z,19.63
2018-11-14T14:17:53.268Z,21.27
2018-11-14T14:20:22.028Z,17.90
2018-11-14T14:22:50.236Z,23.23
2018-11-14T14:25:19.705Z,16.57
2018-11-14T14:27:47.912Z,18.03
2018-11-14T14:30:18.554Z,21.80
2018-11-14T14:32:47.076Z,19.17
2018-11-14T14:35:16.505Z,18.83
2018-11-14T14:37:44.892Z,17.87
2018-11-14T14:40:16.699Z,24.13
2018-11-14T14:42:45.131Z,17.37
2018-11-14T14:45:14.817Z,17.20
2018-11-14T14:47:43.144Z,22.23
2018-11-14T14:50:14.420Z,20.90
2018-11-14T14:52:43.749Z,18.47
2018-11-14T14:55:15.401Z,22.70
2018-11-14T14:57:44.418Z,23.07
2018-11-14T15:00:31.537Z,20.40
2018-11-14T15:02:59.776Z,26.30
2018-11-14T15:05:27.992Z,23.73
2018-11-14T15:07:56.220Z,17.37
2018-11-14T15:10:24.442Z,23.53
2018-11-14T15:12:52.728Z,26.03
2018-11-14T15:15:21.202Z,22.97
2018-11-14T15:17:49.392Z,24.70
2018-11-14T15:20:20.321Z,27.00
2018-11-14T15:22:48.642Z,26.30
2018-11-14T15:25:18.397Z,29.17
2018-11-14T15:27:47.063Z,33.70
2018-11-14T15:30:19.810Z,35.20
2018-11-14T15:32:48.074Z,33.37
2018-11-14T15:35:16.471Z,40.63
2018-11-14T15:37:44.670Z,31.93
2018-11-14T15:40:16.038Z,39.23
2018-11-14T15:42:44.446Z,38.63
2018-11-14T15:45:15.446Z,36.08
2018-11-14T15:47:43.786Z,42.63
2018-11-14T15:50:14.550Z,39.50
2018-11-14T15:52:44.028Z,42.58
2018-11-14T15:55:13.018Z,42.43
2018-11-14T15:57:41.474Z,39.92
2018-11-14T16:00:16.069Z,42.50
2018-11-14T16:02:47.336Z,36.20
2018-11-14T16:05:16.879Z,38.55
2018-11-14T16:07:46.003Z,23.87
2018-11-14T16:10:15.672Z,16.65
2018-11-14T16:12:44.055Z,16.80
2018-11-14T16:15:14.424Z,13.80
2018-11-14T16:17:42.832Z,12.40
2018-11-14T16:20:12.850Z,11.70
2018-11-14T16:22:41.016Z,10.15
2018-11-14T16:25:13.208Z,10.53
2018-11-14T16:27:42.516Z,8.18
2018-11-14T16:30:16.707Z,8.70
2018-11-14T16:32:46.102Z,9.10
2018-11-14T16:35:14.630Z,7.05
2018-11-14T16:37:43.308Z,8.13
2018-11-14T16:40:16.217Z,11.60
2018-11-14T16:42:44.526Z,7.00
2018-11-14T16:45:13.489Z,9.10
2018-11-14T16:47:41.880Z,9.90
2018-11-14T16:50:12.501Z,7.45
2018-11-14T16:52:40.876Z,7.70
2018-11-14T16:55:10.557Z,6.83
2018-11-14T16:57:39.611Z,7.37
2018-11-14T17:00:12.275Z,9.73
2018-11-14T17:02:41.023Z,9.63
2018-11-14T17:05:09.419Z,8.80
2018-11-14T17:07:37.671Z,10.98
2018-11-14T17:10:09.130Z,14.03
2018-11-14T17:12:37.527Z,11.38
2018-11-14T17:15:08.319Z,13.20
2018-11-14T17:17:36.600Z,13.68
2018-11-14T17:20:06.114Z,15.60
2018-11-14T17:22:34.350Z,13.10
2018-11-14T17:25:02.682Z,12.53
2018-11-14T17:27:31.023Z,16.12
2018-11-14T17:29:59.303Z,14.13
2018-11-14T17:32:27.546Z,12.07
2018-11-14T17:34:55.932Z,14.93
2018-11-14T17:37:24.217Z,11.48
2018-11-14T17:39:52.485Z,12.88
2018-11-14T17:42:20.879Z,15.85
2018-11-14T17:44:49.106Z,12.15
2018-11-14T17:47:17.435Z,13.83
2018-11-14T17:49:45.840Z,14.58
2018-11-14T17:52:14.205Z,17.65
2018-11-14T17:54:42.490Z,13.53
2018-11-14T17:57:10.756Z,14.53
2018-11-14T17:59:38.990Z,14.95
2018-11-14T18:02:07.436Z,15.43
2018-11-14T18:04:35.662Z,14.73
2018-11-14T18:07:04.134Z,15.85
2018-11-14T18:09:32.447Z,15.33
2018-11-14T18:12:00.814Z,18.67
2018-11-14T18:14:29.078Z,18.63
2018-11-14T18:16:58.362Z,16.83
2018-11-14T18:19:26.775Z,15.43
2018-11-14T18:21:55.099Z,18.17
2018-11-14T18:24:24.215Z,17.75
2018-11-14T18:26:52.986Z,14.60
2018-11-14T18:29:21.241Z,16.95
2018-11-14T18:31:50.071Z,15.93
2018-11-14T18:34:18.441Z,15.73
2018-11-14T18:36:46.761Z,16.90
2018-11-14T18:39:15.067Z,17.73
2018-11-14T18:41:44.114Z,15.00
2018-11-14T18:44:12.532Z,20.37
2018-11-14T18:46:40.747Z,16.48
2018-11-14T18:49:08.912Z,16.23
2018-11-14T18:51:37.306Z,19.75
2018-11-14T18:54:05.954Z,21.27
2018-11-14T18:56:34.337Z,19.70
2018-11-14T18:59:02.599Z,18.37
2018-11-14T19:01:30.826Z,19.80
2018-11-14T19:03:59.068Z,19.70
2018-11-14T19:06:27.583Z,20.70
2018-11-14T19:08:55.852Z,18.83
2018-11-14T19:11:24.060Z,18.43
2018-11-14T19:13:52.926Z,20.13
2018-11-14T19:16:21.510Z,18.98
2018-11-14T19:18:49.919Z,17.90
2018-11-14T19:21:19.391Z,20.10
2018-11-14T19:23:47.721Z,19.10
2018-11-14T19:26:16.181Z,19.43
2018-11-14T19:28:44.543Z,22.50
2018-11-14T19:31:12.917Z,20.62
2018-11-14T19:33:41.300Z,20.60
2018-11-14T19:36:09.589Z,22.42
2018-11-14T19:38:37.988Z,22.43
2018-11-14T19:41:06.361Z,20.87
2018-11-14T19:43:34.642Z,21.10
2018-11-14T19:46:03.739Z,22.63
2018-11-14T19:48:31.944Z,23.63
2018-11-14T19:51:00.174Z,22.40
2018-11-14T19:53:28.317Z,22.65
2018-11-14T19:55:56.603Z,24.30
2018-11-14T19:58:24.955Z,20.83
2018-11-14T20:00:53.246Z,22.40
2018-11-14T20:03:21.552Z,24.50
2018-11-14T20:05:50.615Z,22.10
2018-11-14T20:08:18.817Z,23.20
2018-11-14T20:10:47.135Z,23.40
2018-11-14T20:13:15.393Z,21.80
2018-11-14T20:15:43.784Z,21.07
2018-11-14T20:18:12.474Z,20.47
2018-11-14T20:20:40.735Z,21.23
2018-11-14T20:23:09.270Z,22.20
2018-11-14T20:25:37.642Z,20.50
2018-11-14T20:28:06.121Z,21.85
2018-11-14T20:30:36.912Z,22.60
2018-11-14T20:33:08.233Z,22.95
2018-11-14T20:35:36.566Z,20.67
2018-11-14T20:38:05.345Z,25.87
2018-11-14T20:40:36.622Z,19.80
2018-11-14T20:43:05.912Z,22.23
2018-11-14T20:45:34.664Z,22.90
2018-11-14T20:48:03.154Z,21.27
2018-11-14T20:50:31.525Z,25.65
2018-11-14T20:53:02.332Z,21.87
2018-11-14T20:55:31.655Z,24.13
2018-11-14T20:58:00.358Z,21.90
2018-11-14T21:00:30.281Z,21.23
2018-11-14T21:02:58.669Z,23.10
2018-11-14T21:05:27.894Z,23.73
2018-11-14T21:07:56.340Z,21.37
2018-11-14T21:10:26.212Z,24.83
2018-11-14T21:12:54.804Z,23.03
2018-11-14T21:15:24.659Z,22.60
2018-11-14T21:17:53.823Z,24.93
2018-11-14T21:20:22.143Z,30.00
2018-11-14T21:22:50.550Z,22.43
2018-11-14T21:25:20.032Z,23.50
2018-11-14T21:27:48.907Z,22.55
2018-11-14T21:30:23.449Z,22.80
2018-11-14T21:32:51.670Z,22.30
2018-11-14T21:35:25.593Z,24.27
2018-11-14T21:37:58.125Z,21.48
2018-11-14T21:40:26.403Z,24.65
2018-11-14T21:42:54.683Z,21.77
2018-11-14T21:45:24.262Z,24.25
2018-11-14T21:47:57.963Z,23.00
2018-11-14T21:50:27.136Z,23.00
2018-11-14T21:52:55.362Z,23.57
2018-11-14T21:55:23.703Z,22.40
2018-11-14T21:57:51.899Z,26.03
2018-11-14T22:00:21.582Z,21.33
2018-11-14T22:02:52.191Z,22.73
2018-11-14T22:05:20.370Z,21.83
2018-11-14T22:07:48.681Z,22.10
2018-11-14T22:10:18.268Z,25.30
2018-11-14T22:12:46.796Z,23.00
2018-11-14T22:15:16.132Z,24.65
2018-11-14T22:17:44.468Z,20.60
2018-11-14T22:20:14.019Z,19.27
2018-11-14T22:22:42.942Z,20.10
2018-11-14T22:25:12.206Z,16.97
2018-11-14T22:27:40.513Z,18.77
2018-11-14T22:30:18.419Z,18.30
2018-11-14T22:32:46.715Z,17.40
2018-11-14T22:35:15.924Z,17.90
2018-11-14T22:37:44.188Z,20.90
2018-11-14T22:40:15.613Z,21.30
2018-11-14T22:42:44.074Z,18.17
2018-11-14T22:45:15.019Z,17.70
2018-11-14T22:47:43.797Z,18.80
2018-11-14T22:50:16.605Z,17.42
2018-11-14T22:52:45.315Z,19.73
2018-11-14T22:55:14.686Z,20.57
2018-11-14T22:57:43.424Z,18.92
2018-11-14T23:00:22.024Z,19.27
2018-11-14T23:02:52.411Z,17.90
2018-11-14T23:05:20.666Z,20.20
2018-11-14T23:07:49.858Z,21.00
2018-11-14T23:10:20.480Z,18.40
2018-11-14T23:12:49.003Z,20.30
2018-11-14T23:15:18.061Z,22.50
2018-11-14T23:17:46.465Z,17.20
2018-11-14T23:20:15.376Z,20.77
2018-11-14T23:22:44.124Z,20.70
2018-11-14T23:25:12.823Z,17.10
2018-11-14T23:27:42.376Z,19.62
2018-11-14T23:30:11.914Z,19.13
2018-11-14T23:32:41.338Z,19.17
2018-11-14T23:35:16.567Z,18.63
2018-11-14T23:37:47.248Z,19.15
2018-11-14T23:40:15.348Z,20.80
2018-11-14T23:42:43.456Z,20.95
2018-11-14T23:45:12.947Z,21.27
2018-11-14T23:47:41.925Z,17.47
2018-11-14T23:50:19.560Z,20.75
2018-11-14T23:52:48.632Z,18.17
2018-11-14T23:55:17.496Z,19.35
2018-11-14T23:57:45.744Z,19.92
